createdAt,value
2022-08-01T00:00:47.196Z,17.72
2022-08-01T00:03:14.225Z,17.69
2022-08-01T00:05:44.591Z,17.69
2022-08-01T00:08:12.757Z,17.65
2022-08-01T00:10:39.857Z,17.61
2022-08-01T00:13:07.029Z,17.64
2022-08-01T00:15:34.934Z,17.61
2022-08-01T00:18:03.272Z,17.58
2022-08-01T00:20:30.236Z,17.56
2022-08-01T00:22:57.352Z,17.54
2022-08-01T00:25:33.887Z,17.46
2022-08-01T00:28:02.338Z,17.49
2022-08-01T00:30:32.531Z,17.36
2022-08-01T00:32:59.743Z,17.45
2022-08-01T00:35:26.774Z,17.46
2022-08-01T00:37:53.866Z,17.43
2022-08-01T00:40:20.927Z,17.40
2022-08-01T00:42:47.896Z,17.36
2022-08-01T00:45:14.960Z,17.37
2022-08-01T00:47:42.094Z,17.33
2022-08-01T00:50:10.108Z,17.34
2022-08-01T00:52:37.793Z,17.32
2022-08-01T00:55:05.213Z,17.29
2022-08-01T00:58:02.622Z,17.28
2022-08-01T01:00:27.198Z,17.25
2022-08-01T01:02:54.604Z,17.21
2022-08-01T01:05:22.978Z,17.26
2022-08-01T01:07:57.729Z,17.25
2022-08-01T01:10:41.816Z,17.24
2022-08-01T01:13:24.392Z,17.23
2022-08-01T01:16:01.267Z,17.12
2022-08-01T01:18:31.632Z,17.20
2022-08-01T01:21:22.490Z,17.14
2022-08-01T01:24:12.008Z,17.17
2022-08-01T01:27:02.567Z,17.13
2022-08-01T01:29:59.675Z,17.11
2022-08-01T01:32:31.013Z,17.10
2022-08-01T01:35:01.734Z,17.07
2022-08-01T01:37:33.235Z,17.03
2022-08-01T01:40:01.808Z,17.06
2022-08-01T01:42:32.309Z,17.03
2022-08-01T01:45:01.308Z,16.99
2022-08-01T01:47:30.747Z,17.03
2022-08-01T01:49:58.856Z,17.01
2022-08-01T01:52:27.475Z,16.99
2022-08-01T01:54:57.099Z,17.00
2022-08-01T01:57:25.364Z,16.97
2022-08-01T01:59:54.420Z,17.03
2022-08-01T02:02:24.945Z,17.00
2022-08-01T02:04:53.729Z,17.00
2022-08-01T02:07:26.301Z,17.01
2022-08-01T02:09:55.352Z,17.04
2022-08-01T02:12:25.567Z,17.08
2022-08-01T02:15:14.338Z,17.06
2022-08-01T02:17:45.442Z,16.98
2022-08-01T02:20:13.596Z,17.16
2022-08-01T02:23:05.783Z,17.22
2022-08-01T02:26:10.816Z,17.23
2022-08-01T02:28:33.991Z,17.27
2022-08-01T02:31:15.555Z,17.33
2022-08-01T02:33:49.474Z,17.32
2022-08-01T02:36:31.400Z,17.36
2022-08-01T02:39:01.868Z,17.42
2022-08-01T02:41:31.432Z,17.44
2022-08-01T02:44:03.073Z,17.44
2022-08-01T02:46:39.448Z,17.50
2022-08-01T02:49:09.163Z,17.47
2022-08-01T02:51:37.730Z,17.58
2022-08-01T02:54:08.480Z,17.62
2022-08-01T02:56:36.799Z,17.65
2022-08-01T02:59:07.806Z,17.70
2022-08-01T03:01:39.060Z,17.72
2022-08-01T03:04:09.930Z,17.77
2022-08-01T03:06:39.463Z,17.75
2022-08-01T03:09:08.399Z,17.84
2022-08-01T03:11:38.424Z,17.90
2022-08-01T03:14:10.373Z,17.95
2022-08-01T03:16:39.738Z,18.02
2022-08-01T03:19:10.034Z,18.07
2022-08-01T03:21:39.502Z,18.13
2022-08-01T03:24:09.578Z,18.11
2022-08-01T03:26:39.438Z,18.20
2022-08-01T03:29:11.958Z,18.29
2022-08-01T03:31:43.854Z,18.29
2022-08-01T03:34:11.449Z,18.40
2022-08-01T03:36:50.990Z,18.48
2022-08-01T03:39:20.384Z,18.46
2022-08-01T03:41:56.942Z,18.60
2022-08-01T03:44:29.932Z,18.63
2022-08-01T03:47:03.787Z,18.72
2022-08-01T03:49:44.138Z,18.76
2022-08-01T03:52:12.523Z,18.81
2022-08-01T03:54:47.641Z,18.83
2022-08-01T03:57:35.708Z,18.97
2022-08-01T04:00:08.558Z,18.97
2022-08-01T04:02:40.397Z,19.05
2022-08-01T04:05:08.477Z,19.18
2022-08-01T04:07:40.324Z,19.23
2022-08-01T04:10:07.891Z,19.31
2022-08-01T04:12:35.412Z,19.36
2022-08-01T04:15:02.434Z,19.44
2022-08-01T04:17:31.342Z,19.50
2022-08-01T04:19:58.311Z,19.52
2022-08-01T04:22:25.436Z,19.67
2022-08-01T04:24:57.124Z,19.72
2022-08-01T04:27:48.416Z,19.82
2022-08-01T04:30:23.747Z,19.90
2022-08-01T04:32:52.319Z,19.98
2022-08-01T04:35:23.210Z,20.00
2022-08-01T04:38:11.206Z,20.06
2022-08-01T04:40:39.196Z,20.19
2022-08-01T04:43:06.967Z,20.23
2022-08-01T04:45:35.851Z,20.30
2022-08-01T04:48:07.630Z,20.33
2022-08-01T04:53:52.456Z,20.43
2022-08-01T04:56:21.990Z,20.64
2022-08-01T04:59:20.027Z,20.60
2022-08-01T05:01:52.040Z,20.71
2022-08-01T05:05:42.882Z,20.89
2022-08-01T05:08:13.494Z,20.88
2022-08-01T05:10:40.566Z,20.99
2022-08-01T05:13:08.686Z,21.00
2022-08-01T05:15:40.547Z,21.12
2022-08-01T05:18:11.118Z,21.17
2022-08-01T05:20:38.891Z,21.22
2022-08-01T05:23:06.572Z,21.20
2022-08-01T05:25:56.247Z,21.36
2022-08-01T05:28:24.810Z,21.47
2022-08-01T05:30:54.889Z,21.47
2022-08-01T05:33:22.721Z,21.63
2022-08-01T05:35:49.989Z,21.71
2022-08-01T05:38:17.468Z,21.76
2022-08-01T05:40:50.873Z,21.83
2022-08-01T05:43:19.912Z,21.81
2022-08-01T05:45:52.123Z,21.88
2022-08-01T05:48:22.448Z,21.95
2022-08-01T05:50:58.429Z,22.08
2022-08-01T05:53:32.198Z,22.16
2022-08-01T05:56:14.490Z,22.21
2022-08-01T05:58:42.034Z,22.33
2022-08-01T06:01:09.276Z,22.31
2022-08-01T06:03:36.863Z,22.47
2022-08-01T06:06:07.430Z,22.47
2022-08-01T06:08:35.370Z,22.61
2022-08-01T06:11:02.812Z,22.70
2022-08-01T06:13:33.788Z,22.79
2022-08-01T06:16:15.427Z,22.94
2022-08-01T06:18:42.728Z,22.91
2022-08-01T06:21:09.921Z,23.13
2022-08-01T06:23:37.361Z,23.12
2022-08-01T06:26:08.299Z,23.22
2022-08-01T06:28:35.703Z,23.30
2022-08-01T06:31:06.024Z,23.46
2022-08-01T06:33:39.274Z,23.56
2022-08-01T06:36:20.958Z,23.65
2022-08-01T06:38:48.804Z,23.75
2022-08-01T06:41:16.063Z,23.73
2022-08-01T06:43:43.428Z,23.81
2022-08-01T06:46:14.420Z,23.97
2022-08-01T06:51:53.894Z,23.95
2022-08-01T06:55:11.175Z,24.04
2022-08-01T06:57:46.244Z,23.97
2022-08-01T07:00:45.785Z,24.05
2022-08-01T07:03:54.084Z,24.05
2022-08-01T07:06:18.631Z,24.22
2022-08-01T07:09:14.694Z,24.42
2022-08-01T07:11:45.919Z,24.38
2022-08-01T07:14:13.143Z,24.40
2022-08-01T07:16:40.424Z,24.43
2022-08-01T07:19:07.581Z,24.47
2022-08-01T07:21:40.031Z,24.45
2022-08-01T07:24:13.526Z,24.62
2022-08-01T07:26:52.540Z,24.81
2022-08-01T07:29:23.213Z,24.79
2022-08-01T07:31:50.173Z,24.78
2022-08-01T07:34:17.250Z,24.81
2022-08-01T07:36:44.253Z,24.87
2022-08-01T07:39:11.272Z,24.94
2022-08-01T07:42:06.220Z,25.01
2022-08-01T07:44:25.546Z,25.14
2022-08-01T07:46:55.879Z,25.19
2022-08-01T07:49:26.629Z,25.28
2022-08-01T07:52:04.010Z,25.36
2022-08-01T07:54:34.394Z,25.42
2022-08-01T07:57:03.621Z,25.51
2022-08-01T07:59:30.973Z,25.58
2022-08-01T08:01:58.348Z,25.47
2022-08-01T08:04:25.766Z,25.41
2022-08-01T08:06:54.534Z,25.36
2022-08-01T08:09:21.927Z,25.38
2022-08-01T08:11:48.990Z,25.51
2022-08-01T08:14:19.527Z,25.61
2022-08-01T08:16:54.081Z,25.61
2022-08-01T08:19:21.469Z,25.75
2022-08-01T08:22:26.050Z,25.83
2022-08-01T08:25:49.820Z,25.79
2022-08-01T08:28:24.156Z,25.67
2022-08-01T08:31:03.334Z,25.74
2022-08-01T08:37:42.751Z,25.63
2022-08-01T08:48:02.231Z,25.70
2022-08-01T08:51:04.652Z,25.63
2022-08-01T08:53:37.366Z,25.80
2022-08-01T08:57:05.241Z,26.06
2022-08-01T08:59:33.254Z,25.93
2022-08-01T09:02:32.051Z,26.22
2022-08-01T09:05:51.619Z,26.31
2022-08-01T09:13:18.728Z,26.54
2022-08-01T09:24:34.606Z,26.62
2022-08-01T09:34:50.267Z,26.98
2022-08-01T09:38:05.871Z,27.33
2022-08-01T09:46:12.429Z,27.50
2022-08-01T09:53:52.111Z,27.76
2022-08-01T09:59:58.827Z,28.02
2022-08-01T10:25:51.310Z,28.60
2022-08-01T11:20:32.818Z,28.72
2022-08-01T11:23:36.204Z,28.64
2022-08-01T11:32:06.294Z,28.31
2022-08-01T11:48:33.177Z,27.98
2022-08-01T12:39:40.048Z,38.51
2022-08-01T12:42:09.459Z,38.84
2022-08-01T12:44:36.799Z,38.99
2022-08-01T12:47:06.592Z,39.30
2022-08-01T12:49:37.705Z,39.43
2022-08-01T12:52:11.455Z,38.68
2022-08-01T12:55:02.115Z,37.32
2022-08-01T12:57:30.746Z,35.88
2022-08-01T13:00:13.153Z,34.81
2022-08-01T13:02:41.491Z,33.77
2022-08-01T13:05:10.710Z,33.07
2022-08-01T13:07:45.705Z,33.25
2022-08-01T13:10:15.063Z,34.15
2022-08-01T13:12:52.846Z,35.03
2022-08-01T13:15:35.679Z,35.48
2022-08-01T13:18:30.999Z,36.27
2022-08-01T13:21:18.668Z,36.97
2022-08-01T13:24:12.503Z,37.49
2022-08-01T13:26:54.437Z,37.88
2022-08-01T13:29:47.082Z,38.58
2022-08-01T13:32:27.838Z,39.20
2022-08-01T14:00:22.170Z,39.57
2022-08-01T14:03:11.133Z,39.39
2022-08-01T14:05:58.592Z,39.66
2022-08-01T14:08:33.946Z,39.61
2022-08-01T14:11:38.211Z,38.98
2022-08-01T14:14:28.968Z,37.51
2022-08-01T14:22:16.393Z,36.26
2022-08-01T14:29:05.885Z,36.90
2022-08-01T14:31:34.953Z,37.74
2022-08-01T14:34:02.750Z,38.30
2022-08-01T14:36:32.419Z,38.94
2022-08-01T14:39:05.876Z,39.34
2022-08-01T14:41:35.038Z,39.67
2022-08-01T14:44:02.958Z,39.68
2022-08-01T15:12:55.796Z,34.44
2022-08-01T15:15:48.725Z,33.71
2022-08-01T15:18:24.041Z,32.91
2022-08-01T15:21:05.190Z,32.29
2022-08-01T15:24:07.308Z,31.70
2022-08-01T15:26:37.824Z,31.22
2022-08-01T15:29:23.850Z,30.72
2022-08-01T15:32:12.683Z,30.37
2022-08-01T15:34:47.516Z,30.13
2022-08-01T15:37:21.637Z,29.98
2022-08-01T15:39:49.822Z,29.83
2022-08-01T15:42:25.601Z,30.00
2022-08-01T15:44:54.958Z,29.75
2022-08-01T15:47:22.670Z,29.72
2022-08-01T15:49:52.839Z,29.58
2022-08-01T15:52:22.412Z,29.38
2022-08-01T15:54:50.661Z,29.52
2022-08-01T15:57:18.498Z,29.56
2022-08-01T15:59:45.984Z,29.73
2022-08-01T16:02:15.113Z,30.09
2022-08-01T16:04:42.949Z,30.60
2022-08-01T16:07:11.853Z,31.17
2022-08-01T16:09:39.374Z,31.38
2022-08-01T16:12:08.465Z,31.68
2022-08-01T16:14:37.396Z,31.88
2022-08-01T16:17:05.124Z,32.19
2022-08-01T16:19:32.839Z,32.25
2022-08-01T16:22:05.296Z,31.93
2022-08-01T16:24:39.688Z,31.33
2022-08-01T16:27:07.105Z,30.83
2022-08-01T16:29:35.931Z,30.38
2022-08-01T16:32:35.948Z,30.13
2022-08-01T16:35:10.559Z,29.78
2022-08-01T16:37:43.368Z,29.75
2022-08-01T16:40:11.045Z,29.77
2022-08-01T16:42:40.144Z,29.77
2022-08-01T16:45:13.918Z,29.50
2022-08-01T16:47:41.970Z,29.40
2022-08-01T16:50:14.907Z,29.42
2022-08-01T16:52:44.296Z,29.27
2022-08-01T16:55:12.683Z,29.10
2022-08-01T16:57:40.046Z,28.61
2022-08-01T17:00:11.230Z,28.19
2022-08-01T17:02:48.334Z,27.92
2022-08-01T17:05:15.925Z,27.48
2022-08-01T17:07:43.196Z,27.03
2022-08-01T17:10:14.437Z,26.64
2022-08-01T17:12:42.456Z,26.27
2022-08-01T17:15:12.088Z,26.05
2022-08-01T17:17:39.757Z,25.77
2022-08-01T17:20:16.922Z,25.51
2022-08-01T17:22:49.102Z,25.11
2022-08-01T17:25:18.046Z,24.96
2022-08-01T17:27:45.253Z,24.82
2022-08-01T17:30:38.729Z,24.61
2022-08-01T17:33:05.935Z,24.33
2022-08-01T17:35:33.347Z,24.15
2022-08-01T17:38:00.354Z,23.99
2022-08-01T17:40:42.572Z,23.74
2022-08-01T17:43:09.533Z,23.63
2022-08-01T17:45:50.177Z,23.48
2022-08-01T17:48:20.173Z,23.30
2022-08-01T17:50:48.687Z,23.14
2022-08-01T17:53:20.814Z,22.99
2022-08-01T17:55:55.228Z,22.87
2022-08-01T17:58:33.072Z,22.74
2022-08-01T18:01:22.056Z,22.59
2022-08-01T18:04:06.865Z,22.36
2022-08-01T18:06:35.865Z,22.22
2022-08-01T18:09:19.624Z,22.21
2022-08-01T18:11:48.048Z,22.20
2022-08-01T18:14:40.090Z,22.09
2022-08-01T18:17:53.227Z,21.90
2022-08-01T18:20:39.108Z,21.91
2022-08-01T18:23:11.359Z,21.82
2022-08-01T18:25:38.927Z,21.62
2022-08-01T18:28:19.895Z,21.61
2022-08-01T18:30:54.821Z,21.44
2022-08-01T18:33:25.867Z,21.43
2022-08-01T18:35:53.931Z,21.49
2022-08-01T18:38:23.970Z,21.47
2022-08-01T18:40:52.622Z,21.19
2022-08-01T18:43:28.163Z,21.25
2022-08-01T18:45:59.050Z,21.35
2022-08-01T18:48:26.365Z,21.28
2022-08-01T18:50:55.856Z,21.08
2022-08-01T18:53:25.857Z,21.03
2022-08-01T18:55:53.350Z,20.92
2022-08-01T18:58:23.357Z,21.03
2022-08-01T19:00:54.346Z,20.90
2022-08-01T19:03:21.628Z,20.93
2022-08-01T19:05:49.624Z,20.91
2022-08-01T19:08:20.009Z,20.94
2022-08-01T19:10:47.497Z,20.81
2022-08-01T19:13:18.385Z,20.68
2022-08-01T19:15:45.774Z,20.67
2022-08-01T19:18:14.031Z,20.63
2022-08-01T19:20:44.986Z,20.56
2022-08-01T19:23:40.385Z,20.65
2022-08-01T19:26:12.908Z,20.65
2022-08-01T19:28:46.916Z,20.57
2022-08-01T19:31:15.566Z,20.60
2022-08-01T19:33:43.289Z,20.55
2022-08-01T19:36:16.699Z,20.48
2022-08-01T19:38:44.911Z,20.49
2022-08-01T19:41:15.347Z,20.41
2022-08-01T19:43:46.516Z,20.34
2022-08-01T19:46:18.239Z,20.41
2022-08-01T19:48:53.571Z,20.37
2022-08-01T19:51:22.859Z,20.33
2022-08-01T19:54:05.230Z,20.31
2022-08-01T19:56:42.668Z,20.27
2022-08-01T19:59:10.026Z,20.23
2022-08-01T20:01:37.384Z,20.20
2022-08-01T20:04:05.250Z,20.17
2022-08-01T20:06:33.318Z,20.07
2022-08-01T20:09:01.104Z,20.02
2022-08-01T20:11:28.558Z,20.09
2022-08-01T20:13:58.096Z,20.05
2022-08-01T20:16:25.914Z,19.96
2022-08-01T20:18:53.065Z,19.92
2022-08-01T20:21:21.972Z,19.96
2022-08-01T20:23:51.189Z,19.94
2022-08-01T20:26:28.590Z,19.91
2022-08-01T20:28:57.094Z,19.83
2022-08-01T20:31:43.884Z,19.61
2022-08-01T20:34:13.599Z,19.70
2022-08-01T20:36:54.483Z,19.75
2022-08-01T20:39:24.274Z,19.77
2022-08-01T20:41:59.586Z,19.71
2022-08-01T20:44:27.543Z,19.69
2022-08-01T20:46:54.593Z,19.70
2022-08-01T20:49:22.829Z,19.64
2022-08-01T20:52:10.906Z,19.66
2022-08-01T20:54:43.082Z,19.55
2022-08-01T20:57:22.193Z,19.52
2022-08-01T21:00:02.205Z,19.55
2022-08-01T21:03:02.872Z,19.57
2022-08-01T21:05:39.572Z,19.54
2022-08-01T21:08:13.674Z,19.45
2022-08-01T21:10:41.732Z,19.46
2022-08-01T21:13:21.334Z,19.39
2022-08-01T21:16:07.390Z,19.40
2022-08-01T21:19:19.723Z,19.40
2022-08-01T21:22:11.021Z,19.39
2022-08-01T21:24:58.316Z,19.29
2022-08-01T21:27:33.591Z,19.32
2022-08-01T21:30:04.423Z,19.22
2022-08-01T21:32:33.941Z,19.22
2022-08-01T21:35:02.962Z,19.24
2022-08-01T21:37:31.845Z,19.23
2022-08-01T21:40:09.605Z,19.21
2022-08-01T21:42:39.902Z,19.17
2022-08-01T21:45:09.852Z,19.12
2022-08-01T21:47:37.116Z,19.11
2022-08-01T21:50:04.969Z,19.07
2022-08-01T21:52:50.622Z,19.11
2022-08-01T21:56:14.535Z,19.15
2022-08-01T21:58:48.822Z,19.10
2022-08-01T22:01:23.464Z,19.07
2022-08-01T22:03:53.436Z,18.99
2022-08-01T22:06:23.196Z,19.02
2022-08-01T22:08:53.051Z,18.94
2022-08-01T22:11:28.532Z,18.99
2022-08-01T22:14:05.195Z,18.92
2022-08-01T22:16:40.489Z,18.91
2022-08-01T22:19:37.777Z,18.94
2022-08-01T22:22:02.554Z,18.92
2022-08-01T22:24:32.400Z,18.89
2022-08-01T22:26:59.880Z,18.83
2022-08-01T22:29:31.287Z,18.87
2022-08-01T22:32:01.635Z,18.89
2022-08-01T22:34:28.753Z,18.83
2022-08-01T22:36:58.060Z,18.87
2022-08-01T22:39:26.596Z,18.81
2022-08-01T22:42:02.592Z,18.82
2022-08-01T22:44:35.398Z,18.77
2022-08-01T22:47:10.589Z,18.82
2022-08-01T22:49:52.323Z,18.82
2022-08-01T22:52:28.871Z,18.79
2022-08-01T22:55:06.109Z,18.79
2022-08-01T22:58:01.035Z,18.77
2022-08-01T23:00:34.244Z,18.76
2022-08-01T23:03:34.001Z,18.75
2022-08-01T23:06:05.630Z,18.73
2022-08-01T23:08:33.892Z,18.69
2022-08-01T23:11:05.321Z,18.70
2022-08-01T23:13:33.068Z,18.68
2022-08-01T23:16:01.818Z,18.64
2022-08-01T23:18:29.696Z,18.66
2022-08-01T23:21:01.608Z,18.62
2022-08-01T23:23:31.787Z,18.62
2022-08-01T23:26:00.089Z,18.60
2022-08-01T23:28:28.973Z,18.56
2022-08-01T23:30:57.459Z,18.48
2022-08-01T23:33:24.450Z,18.47
2022-08-01T23:35:52.443Z,18.55
2022-08-01T23:38:20.457Z,18.52
2022-08-01T23:40:47.599Z,18.52
2022-08-01T23:43:17.447Z,18.50
2022-08-01T23:46:04.475Z,18.46
2022-08-01T23:48:36.114Z,18.48
2022-08-01T23:51:04.568Z,18.48
2022-08-01T23:53:31.918Z,18.41
2022-08-01T23:56:00.989Z,18.46
2022-08-01T23:58:30.173Z,18.37
